createdAt,value
2022-08-23T00:01:31.150Z,99834.44
2022-08-23T00:04:02.840Z,99827.06
2022-08-23T00:06:30.254Z,99779.84
2022-08-23T00:08:57.568Z,99831.19
2022-08-23T00:11:32.533Z,99818.94
2022-08-23T00:14:03.056Z,99814.06
2022-08-23T00:16:29.911Z,99827.19
2022-08-23T00:18:57.065Z,99787.03
2022-08-23T00:21:24.019Z,99822.34
2022-08-23T00:23:51.300Z,99796.09
2022-08-23T00:26:20.786Z,99821.94
2022-08-23T00:28:49.471Z,99718.59
2022-08-23T00:31:18.746Z,99810.94
2022-08-23T00:33:46.465Z,99728.47
2022-08-23T00:36:13.383Z,99813.75
2022-08-23T00:38:40.486Z,99818.34
2022-08-23T00:41:07.710Z,99819.19
2022-08-23T00:43:57.904Z,99806.56
2022-08-23T00:47:06.144Z,99788.84
2022-08-23T00:49:35.279Z,99815.94
2022-08-23T00:52:18.114Z,99813.06
2022-08-23T00:54:45.783Z,99793.34
2022-08-23T00:57:19.479Z,99795.81
2022-08-23T00:59:46.827Z,99808.47
2022-08-23T01:02:14.563Z,99807.69
2022-08-23T01:04:45.278Z,99817.50
2022-08-23T01:07:24.870Z,99804.84
2022-08-23T01:09:56.334Z,99805.25
2022-08-23T01:12:40.652Z,99760.09
2022-08-23T01:15:23.642Z,99807.28
2022-08-23T01:18:06.725Z,99807.66
2022-08-23T01:20:49.715Z,99826.47
2022-08-23T01:23:30.659Z,99807.09
2022-08-23T01:25:58.746Z,99835.72
2022-08-23T01:28:26.246Z,99819.72
2022-08-23T01:30:53.648Z,99796.66
2022-08-23T01:33:21.530Z,99818.81
2022-08-23T01:35:54.297Z,99803.19
2022-08-23T01:38:22.631Z,99806.00
2022-08-23T01:40:50.644Z,99816.59
2022-08-23T01:43:20.148Z,99820.22
2022-08-23T01:45:48.606Z,99782.09
2022-08-23T01:48:16.832Z,99811.94
2022-08-23T01:50:44.850Z,99817.59
2022-08-23T01:53:12.305Z,99815.94
2022-08-23T01:55:41.051Z,99808.16
2022-08-23T01:58:08.769Z,99805.66
2022-08-23T02:00:39.311Z,99783.03
2022-08-23T02:03:07.285Z,99758.19
2022-08-23T02:05:35.139Z,99794.38
2022-08-23T02:08:21.968Z,99801.25
2022-08-23T02:10:48.824Z,99812.34
2022-08-23T02:13:15.987Z,99801.31
2022-08-23T02:15:44.678Z,99752.84
2022-08-23T02:18:12.855Z,99785.63
2022-08-23T02:20:52.391Z,99779.03
2022-08-23T02:23:20.928Z,99802.50
2022-08-23T02:25:47.950Z,99815.50
2022-08-23T02:28:15.058Z,99812.50
2022-08-23T02:30:41.964Z,99812.91
2022-08-23T02:33:08.978Z,99812.91
2022-08-23T02:35:37.867Z,99803.81
2022-08-23T02:38:11.524Z,99800.56
2022-08-23T02:40:39.644Z,99821.88
2022-08-23T02:43:07.272Z,99731.53
2022-08-23T02:45:34.721Z,99797.22
2022-08-23T02:48:01.911Z,99792.69
2022-08-23T02:50:28.838Z,99766.47
2022-08-23T02:52:55.836Z,99756.22
2022-08-23T02:55:22.719Z,99791.88
2022-08-23T02:57:49.850Z,99722.94
2022-08-23T03:00:18.211Z,99778.81
2022-08-23T03:02:46.093Z,99809.53
2022-08-23T03:05:13.924Z,99810.75
2022-08-23T03:07:41.161Z,99818.44
2022-08-23T03:10:09.572Z,99796.31
2022-08-23T03:12:36.927Z,99734.69
2022-08-23T03:15:05.671Z,99756.91
2022-08-23T03:17:32.771Z,99719.88
2022-08-23T03:19:59.552Z,99803.94
2022-08-23T03:22:26.658Z,99793.22
2022-08-23T03:24:53.597Z,99799.38
2022-08-23T03:27:20.379Z,99776.19
2022-08-23T03:29:47.568Z,99815.59
2022-08-23T03:32:15.518Z,99708.88
2022-08-23T03:34:42.608Z,99796.78
2022-08-23T03:37:09.685Z,99805.72
2022-08-23T03:39:36.705Z,99776.53
2022-08-23T03:42:04.058Z,99789.25
2022-08-23T03:44:30.895Z,99776.81
2022-08-23T03:46:57.839Z,99731.59
2022-08-23T03:49:24.681Z,99769.47
2022-08-23T03:51:52.008Z,99770.94
2022-08-23T03:54:18.931Z,99778.38
2022-08-23T03:57:00.985Z,99791.63
2022-08-23T03:59:28.989Z,99794.13
2022-08-23T04:01:56.404Z,99785.53
2022-08-23T04:04:23.684Z,99748.88
2022-08-23T04:06:50.629Z,99799.81
2022-08-23T04:09:17.913Z,99766.19
2022-08-23T04:11:45.183Z,99711.03
2022-08-23T04:14:13.298Z,99783.72
2022-08-23T04:16:41.110Z,99771.88
2022-08-23T04:19:09.738Z,99793.25
2022-08-23T04:21:38.417Z,99796.13
2022-08-23T04:24:05.571Z,99780.03
2022-08-23T04:26:33.800Z,99789.78
2022-08-23T04:29:01.271Z,99800.94
2022-08-23T04:31:28.693Z,99793.44
2022-08-23T04:34:01.875Z,99790.47
2022-08-23T04:36:36.081Z,99788.91
2022-08-23T04:39:04.233Z,99797.75
2022-08-23T04:41:49.416Z,99776.25
2022-08-23T04:44:17.200Z,99805.81
2022-08-23T04:46:44.269Z,99708.22
2022-08-23T04:49:12.276Z,99757.44
2022-08-23T04:51:39.646Z,99792.78
2022-08-23T04:54:07.979Z,99705.25
2022-08-23T04:56:35.329Z,99789.94
2022-08-23T04:59:03.317Z,99794.19
2022-08-23T05:01:30.207Z,99779.44
2022-08-23T05:03:57.322Z,99749.81
2022-08-23T05:06:25.230Z,99790.88
2022-08-23T05:08:52.086Z,99808.97
2022-08-23T05:11:19.218Z,99731.63
2022-08-23T05:13:46.406Z,99798.28
2022-08-23T05:16:14.235Z,99762.94
2022-08-23T05:18:41.426Z,99706.78
2022-08-23T05:21:11.508Z,99800.06
2022-08-23T05:23:38.291Z,99801.69
2022-08-23T05:26:05.222Z,99769.34
2022-08-23T05:28:34.882Z,99792.06
2022-08-23T05:31:19.084Z,99797.81
2022-08-23T05:33:46.791Z,99819.56
2022-08-23T05:36:15.579Z,99789.72
2022-08-23T05:38:43.060Z,99802.69
2022-08-23T05:41:10.518Z,99790.38
2022-08-23T05:43:37.956Z,99774.69
2022-08-23T05:46:07.787Z,99813.75
2022-08-23T05:48:41.579Z,99815.44
2022-08-23T05:51:35.564Z,99814.63
2022-08-23T05:54:07.981Z,99804.41
2022-08-23T05:56:39.099Z,99739.38
2022-08-23T05:59:12.447Z,99821.09
2022-08-23T06:01:41.039Z,99797.56
2022-08-23T06:04:12.288Z,99829.13
2022-08-23T06:06:40.472Z,99835.16
2022-08-23T06:09:09.106Z,99822.00
2022-08-23T06:11:36.912Z,99821.56
2022-08-23T06:14:05.480Z,99838.00
2022-08-23T06:16:42.392Z,99841.66
2022-08-23T06:19:10.555Z,99790.31
2022-08-23T06:21:38.733Z,99798.47
2022-08-23T06:24:07.292Z,99793.22
2022-08-23T06:26:38.484Z,99836.13
2022-08-23T06:29:09.137Z,99835.78
2022-08-23T06:31:47.312Z,99779.63
2022-08-23T06:34:25.691Z,99837.31
2022-08-23T06:36:55.696Z,99800.66
2022-08-23T06:39:25.056Z,99813.56
2022-08-23T06:41:52.801Z,99791.19
2022-08-23T06:44:20.345Z,99784.00
2022-08-23T06:46:48.897Z,99833.84
2022-08-23T06:49:16.825Z,99813.97
2022-08-23T06:51:48.284Z,99834.75
2022-08-23T06:54:16.628Z,99815.66
2022-08-23T06:56:44.560Z,99839.28
2022-08-23T06:59:12.317Z,99843.13
2022-08-23T07:01:47.734Z,99846.16
2022-08-23T07:04:18.906Z,99793.84
2022-08-23T07:06:46.610Z,99843.97
2022-08-23T07:09:13.987Z,99827.22
2022-08-23T07:11:41.390Z,99841.13
2022-08-23T07:14:17.063Z,99831.75
2022-08-23T07:16:52.772Z,99840.81
2022-08-23T07:19:21.771Z,99828.13
2022-08-23T07:21:56.438Z,99853.13
2022-08-23T07:24:23.625Z,99844.59
2022-08-23T07:26:52.303Z,99834.97
2022-08-23T07:29:21.715Z,99853.91
2022-08-23T07:31:52.361Z,99832.28
2022-08-23T07:34:20.341Z,99809.81
2022-08-23T07:36:48.928Z,99819.69
2022-08-23T07:39:16.636Z,99833.16
2022-08-23T07:41:44.486Z,99841.66
2022-08-23T07:44:13.028Z,99823.03
2022-08-23T07:46:46.339Z,99817.84
2022-08-23T07:49:13.854Z,99838.03
2022-08-23T07:51:42.522Z,99823.81
2022-08-23T07:54:11.710Z,99820.19
2022-08-23T07:56:38.926Z,99740.75
2022-08-23T07:59:07.860Z,99791.75
2022-08-23T08:01:35.744Z,99833.22
2022-08-23T08:04:03.915Z,99834.53
2022-08-23T08:06:32.508Z,99843.38
2022-08-23T08:09:00.244Z,99823.31
2022-08-23T08:11:34.815Z,99817.91
2022-08-23T08:14:06.450Z,99808.06
2022-08-23T08:16:38.701Z,99821.13
2022-08-23T08:19:08.316Z,99842.63
2022-08-23T08:21:39.633Z,99847.34
2022-08-23T08:24:10.784Z,99846.84
2022-08-23T08:26:37.697Z,99819.69
2022-08-23T08:29:05.720Z,99847.94
2022-08-23T08:31:33.186Z,99793.09
2022-08-23T08:34:00.059Z,99863.09
2022-08-23T08:36:55.311Z,99851.28
2022-08-23T08:39:28.403Z,99845.66
2022-08-23T08:42:15.164Z,99870.91
2022-08-23T08:44:58.978Z,99856.75
2022-08-23T08:47:41.002Z,99861.44
2022-08-23T08:50:08.060Z,99872.97
2022-08-23T08:52:42.644Z,99817.94
2022-08-23T08:55:14.366Z,99826.78
2022-08-23T08:57:47.430Z,99836.84
2022-08-23T09:00:20.687Z,99852.06
2022-08-23T09:02:47.941Z,99867.75
2022-08-23T09:05:19.044Z,99878.34
2022-08-23T09:08:04.162Z,99878.22
2022-08-23T09:11:01.687Z,99869.84
2022-08-23T09:14:19.508Z,99869.28
2022-08-23T09:16:52.151Z,99877.47
2022-08-23T09:19:22.541Z,99860.28
2022-08-23T09:22:02.395Z,99876.16
2022-08-23T09:24:30.641Z,99829.06
2022-08-23T09:26:57.887Z,99882.00
2022-08-23T09:29:34.288Z,99870.63
2022-08-23T09:32:04.380Z,99872.44
2022-08-23T09:34:31.118Z,99880.22
2022-08-23T09:37:16.616Z,99877.94
2022-08-23T09:39:47.525Z,99816.75
2022-08-23T09:42:28.234Z,99872.88
2022-08-23T09:44:56.501Z,99870.06
2022-08-23T09:47:44.568Z,99860.03
2022-08-23T09:50:27.085Z,99874.06
2022-08-23T09:53:04.555Z,99867.22
2022-08-23T09:55:33.939Z,99886.16
2022-08-23T09:58:03.940Z,99851.25
2022-08-23T10:00:36.273Z,99870.22
2022-08-23T10:03:23.854Z,99876.56
2022-08-23T10:05:59.561Z,99878.31
2022-08-23T10:08:33.465Z,99877.09
2022-08-23T10:11:12.315Z,99893.19
2022-08-23T10:13:43.111Z,99876.81
2022-08-23T10:16:41.202Z,99845.00
2022-08-23T10:19:10.959Z,99891.22
2022-08-23T10:21:47.410Z,99877.91
2022-08-23T10:24:46.863Z,99888.19
2022-08-23T10:27:41.279Z,99884.41
2022-08-23T10:30:15.038Z,99886.03
2022-08-23T10:32:50.677Z,99891.72
2022-08-23T10:35:36.460Z,99886.53
2022-08-23T10:38:13.030Z,99895.34
2022-08-23T10:40:55.029Z,99881.34
2022-08-23T10:44:00.001Z,99892.09
2022-08-23T10:46:30.901Z,99884.44
2022-08-23T10:49:01.439Z,99886.16
2022-08-23T10:51:33.201Z,99883.81
2022-08-23T10:54:16.356Z,99844.13
2022-08-23T10:56:50.967Z,99851.13
2022-08-23T10:59:22.335Z,99849.75
2022-08-23T11:02:01.866Z,99889.00
2022-08-23T11:05:05.497Z,99888.59
2022-08-23T11:07:43.624Z,99862.81
2022-08-23T11:10:17.369Z,99876.44
2022-08-23T11:12:56.483Z,99879.84
2022-08-23T11:15:44.924Z,99881.47
2022-08-23T11:18:42.619Z,99877.69
2022-08-23T11:21:12.295Z,99894.03
2022-08-23T11:24:14.467Z,99887.56
2022-08-23T11:26:44.909Z,99891.25
2022-08-23T11:29:11.648Z,99889.97
2022-08-23T11:31:51.316Z,99882.22
2022-08-23T11:34:33.281Z,99894.16
2022-08-23T11:37:18.812Z,99878.06
2022-08-23T11:39:58.098Z,99886.16
2022-08-23T11:42:39.992Z,99888.25
2022-08-23T11:45:37.768Z,99883.38
2022-08-23T11:48:30.192Z,99882.47
2022-08-23T11:50:59.867Z,99882.59
2022-08-23T11:53:56.148Z,99877.38
2022-08-23T11:56:46.033Z,99885.31
2022-08-23T11:59:58.408Z,99871.00
2022-08-23T12:02:49.069Z,99876.22
2022-08-23T12:05:18.303Z,99890.53
2022-08-23T12:08:02.724Z,99873.56
2022-08-23T12:10:38.514Z,99867.50
2022-08-23T12:13:23.072Z,99873.19
2022-08-23T12:16:16.736Z,99868.84
2022-08-23T12:18:54.189Z,99802.13
2022-08-23T12:21:42.200Z,99867.00
2022-08-23T12:24:24.568Z,99851.38
2022-08-23T12:27:00.149Z,99862.56
2022-08-23T12:29:55.957Z,99856.50
2022-08-23T12:32:48.144Z,99863.75
2022-08-23T12:35:42.255Z,99858.13
2022-08-23T12:38:11.981Z,99868.28
2022-08-23T12:40:42.808Z,99860.19
2022-08-23T12:43:22.793Z,99855.88
2022-08-23T12:46:07.837Z,99840.91
2022-08-23T12:48:46.486Z,99859.88
2022-08-23T12:51:14.193Z,99854.59
2022-08-23T12:53:45.733Z,99844.22
2022-08-23T12:56:15.856Z,99855.94
2022-08-23T12:58:48.176Z,99848.31
2022-08-23T13:01:38.676Z,99791.16
2022-08-23T13:04:14.816Z,99850.59
2022-08-23T13:06:44.406Z,99866.84
2022-08-23T13:09:34.692Z,99846.22
2022-08-23T13:12:12.701Z,99845.25
2022-08-23T13:14:42.406Z,99855.41
2022-08-23T13:17:27.030Z,99828.25
2022-08-23T13:20:06.919Z,99846.75
2022-08-23T13:22:55.952Z,99851.38
2022-08-23T13:25:32.870Z,99823.59
2022-08-23T13:28:08.371Z,99835.78
2022-08-23T13:30:38.681Z,99755.59
2022-08-23T13:33:08.361Z,99838.38
2022-08-23T13:35:44.513Z,99789.25
2022-08-23T13:38:21.442Z,99842.28
2022-08-23T13:40:54.497Z,99841.22
2022-08-23T13:43:41.088Z,99828.50
2022-08-23T13:46:20.945Z,99798.50
2022-08-23T13:49:01.920Z,99786.25
2022-08-23T13:51:38.804Z,99832.31
2022-08-23T13:54:16.085Z,99833.00
2022-08-23T13:56:53.319Z,99815.41
2022-08-23T13:59:31.312Z,99837.19
2022-08-23T14:02:05.381Z,99834.44
2022-08-23T14:04:32.829Z,99820.28
2022-08-23T14:06:59.604Z,99835.59
2022-08-23T14:09:26.496Z,99808.00
2022-08-23T14:11:58.038Z,99827.22
2022-08-23T14:14:26.191Z,99826.06
2022-08-23T14:16:54.633Z,99819.81
2022-08-23T14:22:08.425Z,99830.47
2022-08-23T14:24:35.325Z,99778.81
2022-08-23T14:27:02.585Z,99823.22
2022-08-23T14:29:29.800Z,99829.91
2022-08-23T14:31:59.817Z,99811.78
2022-08-23T14:34:28.085Z,99821.69
2022-08-23T14:39:42.364Z,99834.97
2022-08-23T14:42:10.175Z,99810.41
2022-08-23T14:44:36.982Z,99820.66
2022-08-23T14:47:05.999Z,99785.03
2022-08-23T14:49:33.573Z,99768.38
2022-08-23T14:52:00.493Z,99765.84
2022-08-23T14:54:27.670Z,99816.91
2022-08-23T14:56:54.845Z,99799.81
2022-08-23T14:59:21.887Z,99805.66
2022-08-23T15:01:50.928Z,99809.94
2022-08-23T15:04:20.434Z,99800.94
2022-08-23T15:07:13.978Z,99794.72
2022-08-23T15:09:34.982Z,99794.66
2022-08-23T15:14:49.394Z,99777.81
2022-08-23T15:17:16.276Z,99790.78
2022-08-23T15:19:43.208Z,99776.50
2022-08-23T15:22:18.690Z,99768.34
2022-08-23T15:24:49.569Z,99801.50
2022-08-23T15:27:18.106Z,99784.84
2022-08-23T15:29:45.003Z,99724.63
2022-08-23T15:32:12.747Z,99788.31
2022-08-23T15:34:45.690Z,99774.06
2022-08-23T15:37:14.448Z,99686.84
2022-08-23T15:39:42.544Z,99792.22
2022-08-23T15:42:09.508Z,99795.59
2022-08-23T15:44:36.342Z,99748.88
2022-08-23T15:47:08.821Z,99756.91
2022-08-23T15:49:36.636Z,99768.44
2022-08-23T15:52:05.202Z,99778.34
2022-08-23T15:54:32.144Z,99774.44
2022-08-23T15:56:59.010Z,99766.59
2022-08-23T15:59:26.157Z,99787.53
2022-08-23T16:01:53.097Z,99769.91
2022-08-23T16:04:19.933Z,99726.44
2022-08-23T16:06:47.900Z,99774.97
2022-08-23T16:09:23.398Z,99763.66
2022-08-23T16:11:50.709Z,99743.69
2022-08-23T16:14:17.950Z,99777.13
2022-08-23T16:16:48.654Z,99766.63
2022-08-23T16:19:16.816Z,99734.00
2022-08-23T16:21:44.672Z,99757.22
2022-08-23T16:24:12.093Z,99767.47
2022-08-23T16:26:42.610Z,99760.50
2022-08-23T16:29:14.699Z,99712.91
2022-08-23T16:31:41.958Z,99670.53
2022-08-23T16:34:11.498Z,99765.16
2022-08-23T16:36:40.296Z,99754.56
2022-08-23T16:39:08.181Z,99757.84
2022-08-23T16:41:35.045Z,99764.44
2022-08-23T16:44:01.968Z,99742.88
2022-08-23T16:46:31.788Z,99709.84
2022-08-23T16:48:58.646Z,99666.56
2022-08-23T16:51:26.202Z,99736.03
2022-08-23T16:54:01.787Z,99752.44
2022-08-23T16:56:31.880Z,99764.31
2022-08-23T16:58:59.512Z,99756.50
2022-08-23T17:01:27.529Z,99732.81
2022-08-23T17:03:54.583Z,99752.03
2022-08-23T17:06:21.713Z,99754.50
2022-08-23T17:08:48.603Z,99739.91
2022-08-23T17:11:18.356Z,99728.78
2022-08-23T17:13:45.624Z,99753.28
2022-08-23T17:16:12.954Z,99715.41
2022-08-23T17:18:40.168Z,99757.47
2022-08-23T17:21:07.476Z,99679.19
2022-08-23T17:23:39.278Z,99767.34
2022-08-23T17:26:09.601Z,99749.34
2022-08-23T17:28:36.474Z,99760.03
2022-08-23T17:31:03.791Z,99702.09
2022-08-23T17:33:30.835Z,99728.22
2022-08-23T17:35:57.777Z,99689.53
2022-08-23T17:38:24.767Z,99760.53
2022-08-23T17:40:52.730Z,99700.53
2022-08-23T17:43:19.681Z,99712.78
2022-08-23T17:45:48.765Z,99749.91
2022-08-23T17:48:18.343Z,99738.91
2022-08-23T17:50:47.061Z,99667.16
2022-08-23T17:53:15.723Z,99752.91
2022-08-23T17:55:43.921Z,99737.88
2022-08-23T17:58:11.243Z,99724.44
2022-08-23T18:00:39.336Z,99716.72
2022-08-23T18:03:07.322Z,99685.38
2022-08-23T18:05:35.532Z,99772.84
2022-08-23T18:08:05.143Z,99685.84
2022-08-23T18:10:32.089Z,99698.97
2022-08-23T18:12:59.016Z,99754.97
2022-08-23T18:15:27.185Z,99762.69
2022-08-23T18:17:57.558Z,99753.38
2022-08-23T18:20:29.145Z,99768.06
2022-08-23T18:22:58.633Z,99769.75
2022-08-23T18:25:26.141Z,99736.31
2022-08-23T18:28:10.023Z,99734.72
2022-08-23T18:30:50.663Z,99786.59
2022-08-23T18:33:20.369Z,99771.50
2022-08-23T18:35:52.800Z,99785.03
2022-08-23T18:38:20.304Z,99714.38
2022-08-23T18:40:48.692Z,99783.81
2022-08-23T18:43:24.077Z,99782.28
2022-08-23T18:45:54.181Z,99752.44
2022-08-23T18:48:22.428Z,99795.78
2022-08-23T18:50:50.190Z,99714.84
2022-08-23T18:53:19.709Z,99806.06
2022-08-23T18:55:46.584Z,99791.38
2022-08-23T18:58:13.428Z,99768.09
2022-08-23T19:00:42.026Z,99817.59
2022-08-23T19:03:09.404Z,99801.66
2022-08-23T19:05:41.545Z,99747.69
2022-08-23T19:08:10.596Z,99817.63
2022-08-23T19:10:37.817Z,99818.44
2022-08-23T19:13:05.043Z,99792.25
2022-08-23T19:15:34.851Z,99847.91
2022-08-23T19:18:02.804Z,99845.44
2022-08-23T19:20:30.178Z,99794.63
2022-08-23T19:22:57.564Z,99789.69
2022-08-23T19:25:25.205Z,99833.47
2022-08-23T19:27:52.435Z,99839.16
2022-08-23T19:30:19.651Z,99816.97
2022-08-23T19:32:47.023Z,99740.28
2022-08-23T19:35:14.625Z,99796.66
2022-08-23T19:37:41.714Z,99840.88
2022-08-23T19:40:09.212Z,99831.41
2022-08-23T19:42:37.890Z,99815.13
2022-08-23T19:45:05.823Z,99840.41
2022-08-23T19:47:33.727Z,99806.28
2022-08-23T19:50:00.665Z,99764.72
2022-08-23T19:52:27.644Z,99846.78
2022-08-23T19:55:00.246Z,99852.75
2022-08-23T19:57:33.649Z,99857.25
2022-08-23T20:00:01.833Z,99838.41
2022-08-23T20:02:28.910Z,99852.69
2022-08-23T20:04:56.070Z,99830.38
2022-08-23T20:07:22.933Z,99844.75
2022-08-23T20:09:49.749Z,99792.19
2022-08-23T20:12:17.645Z,99876.66
2022-08-23T20:14:45.719Z,99867.56
2022-08-23T20:17:12.521Z,99833.50
2022-08-23T20:19:41.349Z,99864.59
2022-08-23T20:22:26.826Z,99866.63
2022-08-23T20:24:53.839Z,99840.25
2022-08-23T20:27:28.886Z,99888.66
2022-08-23T20:29:59.153Z,99853.22
2022-08-23T20:32:26.759Z,99903.25
2022-08-23T20:34:53.712Z,99888.06
2022-08-23T20:37:21.802Z,99881.72
2022-08-23T20:39:48.732Z,99856.00
2022-08-23T20:42:15.773Z,99893.63
2022-08-23T20:44:42.743Z,99885.28
2022-08-23T20:47:09.898Z,99913.22
2022-08-23T20:49:36.850Z,99882.34
2022-08-23T20:52:04.621Z,99891.00
2022-08-23T20:54:31.721Z,99895.06
2022-08-23T20:56:58.769Z,99854.72
2022-08-23T20:59:26.143Z,99905.19
2022-08-23T21:01:53.278Z,99907.19
2022-08-23T21:04:21.083Z,99911.69
2022-08-23T21:06:52.492Z,99862.28
2022-08-23T21:09:24.697Z,99850.28
2022-08-23T21:11:56.304Z,99885.72
2022-08-23T21:14:23.316Z,99900.75
2022-08-23T21:16:50.159Z,99926.19
2022-08-23T21:19:17.462Z,99926.13
2022-08-23T21:21:45.010Z,99862.78
2022-08-23T21:24:12.675Z,99916.91
2022-08-23T21:26:40.230Z,99908.59
2022-08-23T21:29:07.917Z,99910.97
2022-08-23T21:31:35.262Z,99909.16
2022-08-23T21:34:02.526Z,99822.44
2022-08-23T21:36:29.617Z,99916.06
2022-08-23T21:38:56.810Z,99913.06
2022-08-23T21:41:32.579Z,99929.69
2022-08-23T21:44:00.161Z,99927.16
2022-08-23T21:46:27.130Z,99924.16
2022-08-23T21:48:54.614Z,99921.78
2022-08-23T21:51:21.466Z,99909.22
2022-08-23T21:53:48.544Z,99897.63
2022-08-23T21:56:15.510Z,99899.13
2022-08-23T21:58:42.784Z,99884.22
2022-08-23T22:01:09.827Z,99921.22
2022-08-23T22:03:36.955Z,99840.06
2022-08-23T22:06:04.746Z,99929.97
2022-08-23T22:08:32.119Z,99926.56
2022-08-23T22:11:06.467Z,99927.59
2022-08-23T22:13:35.309Z,99909.88
2022-08-23T22:16:02.151Z,99922.75
2022-08-23T22:18:31.286Z,99920.25
2022-08-23T22:20:59.328Z,99852.03
2022-08-23T22:23:28.173Z,99882.31
2022-08-23T22:26:00.539Z,99894.22
2022-08-23T22:28:31.307Z,99906.19
2022-08-23T22:31:02.145Z,99909.31
2022-08-23T22:33:30.021Z,99908.50
2022-08-23T22:36:05.706Z,99910.94
2022-08-23T22:38:32.604Z,99908.59
2022-08-23T22:40:59.652Z,99914.84
2022-08-23T22:43:26.721Z,99901.22
2022-08-23T22:45:58.897Z,99871.97
2022-08-23T22:48:30.481Z,99889.38
2022-08-23T22:51:08.121Z,99919.78
2022-08-23T22:53:37.420Z,99908.34
2022-08-23T22:56:05.452Z,99929.38
2022-08-23T22:58:32.378Z,99883.25
2022-08-23T23:00:59.551Z,99902.28
2022-08-23T23:03:31.858Z,99925.16
2022-08-23T23:05:58.739Z,99919.69
2022-08-23T23:08:27.954Z,99872.13
2022-08-23T23:10:59.240Z,99937.31
2022-08-23T23:13:29.619Z,99928.06
2022-08-23T23:15:57.030Z,99897.19
2022-08-23T23:18:26.274Z,99913.47
2022-08-23T23:20:58.107Z,99861.19
2022-08-23T23:23:25.566Z,99913.78
2022-08-23T23:25:52.518Z,99921.25
2022-08-23T23:28:20.812Z,99913.94
2022-08-23T23:31:50.735Z,99928.50
2022-08-23T23:34:17.733Z,99867.34
2022-08-23T23:36:44.937Z,99913.19
2022-08-23T23:39:13.187Z,99911.53
2022-08-23T23:41:41.185Z,99886.75
2022-08-23T23:44:08.743Z,99912.19
2022-08-23T23:46:35.611Z,99894.06
2022-08-23T23:49:02.709Z,99906.41
2022-08-23T23:51:31.194Z,99851.88
2022-08-23T23:54:01.074Z,99893.72
2022-08-23T23:56:30.249Z,99892.50
2022-08-23T23:58:57.266Z,99899.47
